Ennis, Montana
Current Conditions -  °F | °C
As of 9:53 AM on Wednesday 26 Nov 2014 (Local Time) from KDLN Reporting Station
Broken Clouds Broken Clouds  
Wind Chill: 38°   Ceiling: 7000
Heat Index: 45°   Visibility: 10mi
Dew Point: 31°   Wind: 17mph
Humidity: 58%   Direction: 240°WSW
Pressure: 30.15"   Gusts: 31mph
Location:  45.35°N, 111.73°W
Report Text: KDLN 261653Z AUTO 24015G27KT 10SM BKN070 07/M01 A3015 RMK AO2 PK WND 24034/1603 SLP215 T00721006
Loading
Personal Weather Stations






























Interactive Weather Map New forecast layout! Learn more

10-Day Weather Forecast

Advertisements
Track Severe Weather on mobile